createdAt,value
2023-01-21T00:00:24.601Z,97175.19
2023-01-21T00:02:51.077Z,97183.59
2023-01-21T00:05:17.564Z,97174.88
2023-01-21T00:07:43.938Z,97177.13
2023-01-21T00:10:10.399Z,97180.84
2023-01-21T00:12:37.524Z,97191.56
2023-01-21T00:15:04.139Z,97180.78
2023-01-21T00:17:35.274Z,97182.75
2023-01-21T00:20:05.008Z,97189.97
2023-01-21T00:22:31.712Z,97182.75
2023-01-21T00:24:58.043Z,97186.84
2023-01-21T00:27:24.600Z,97192.72
2023-01-21T00:29:51.054Z,97183.59
2023-01-21T00:32:17.880Z,97185.91
2023-01-21T00:34:44.273Z,97194.47
2023-01-21T00:37:10.588Z,97192.06
2023-01-21T00:39:37.044Z,97189.06
2023-01-21T00:42:04.493Z,97192.56
2023-01-21T00:44:30.833Z,97189.91
2023-01-21T00:46:57.219Z,97188.06
2023-01-21T00:49:23.603Z,97183.53
2023-01-21T00:51:52.146Z,97189.06
2023-01-21T00:54:18.820Z,97195.88
2023-01-21T00:56:45.141Z,97192.63
2023-01-21T00:59:11.705Z,97196.97
2023-01-21T01:01:38.612Z,97200.47
2023-01-21T01:04:08.263Z,97209.47
2023-01-21T01:06:34.664Z,97203.50
2023-01-21T01:09:01.270Z,97202.84
2023-01-21T01:11:28.178Z,97209.31
2023-01-21T01:13:54.827Z,97211.63
2023-01-21T01:16:21.590Z,97209.66
2023-01-21T01:18:47.963Z,97204.13
2023-01-21T01:21:15.786Z,97198.53
2023-01-21T01:23:42.596Z,97199.84
2023-01-21T01:26:10.842Z,97199.03
2023-01-21T01:28:37.159Z,97197.47
2023-01-21T01:31:04.604Z,97196.13
2023-01-21T01:33:31.003Z,97202.53
2023-01-21T01:36:00.852Z,97204.50
2023-01-21T01:38:27.191Z,97207.84
2023-01-21T01:40:53.701Z,97200.78
2023-01-21T01:43:22.868Z,97200.84
2023-01-21T01:45:49.551Z,97204.69
2023-01-21T01:48:28.101Z,97206.19
2023-01-21T01:50:56.600Z,97206.84
2023-01-21T01:53:23.349Z,97212.66
2023-01-21T01:55:49.900Z,97213.81
2023-01-21T01:58:17.183Z,97214.50
2023-01-21T02:00:44.704Z,97215.38
2023-01-21T02:03:30.259Z,97204.34
2023-01-21T02:05:56.784Z,97212.66
2023-01-21T02:08:23.725Z,97217.97
2023-01-21T02:10:50.129Z,97215.22
2023-01-21T02:13:16.870Z,97213.31
2023-01-21T02:15:45.198Z,97214.81
2023-01-21T02:18:24.165Z,97214.66
2023-01-21T02:20:53.485Z,97215.22
2023-01-21T02:23:30.462Z,97220.88
2023-01-21T02:26:14.911Z,97222.22
2023-01-21T02:29:04.955Z,97230.09
2023-01-21T02:31:46.539Z,97221.13
2023-01-21T02:34:12.862Z,97226.03
2023-01-21T02:37:02.611Z,97226.44
2023-01-21T02:39:29.021Z,97219.94
2023-01-21T02:42:12.478Z,97211.81
2023-01-21T02:45:05.700Z,97216.56
2023-01-21T02:47:45.380Z,97213.63
2023-01-21T02:50:18.329Z,97213.28
2023-01-21T02:52:44.781Z,97210.34
2023-01-21T02:55:15.891Z,97216.88
2023-01-21T02:57:45.103Z,97216.94
2023-01-21T03:00:18.391Z,97216.72
2023-01-21T03:02:50.692Z,97225.09
2023-01-21T03:05:25.226Z,97215.63
2023-01-21T03:07:59.295Z,97216.22
2023-01-21T03:10:34.618Z,97210.06
2023-01-21T03:13:02.642Z,97214.38
2023-01-21T03:15:50.539Z,97210.06
2023-01-21T03:18:25.095Z,97205.56
2023-01-21T03:21:06.131Z,97209.22
2023-01-21T03:23:36.516Z,97199.34
2023-01-21T03:26:04.555Z,97203.19
2023-01-21T03:28:33.091Z,97191.69
2023-01-21T03:31:10.807Z,97202.41
2023-01-21T03:33:39.463Z,97195.84
2023-01-21T03:36:10.492Z,97199.19
2023-01-21T03:38:39.896Z,97201.41
2023-01-21T03:41:11.407Z,97195.25
2023-01-21T03:43:38.532Z,97194.44
2023-01-21T03:46:40.327Z,97193.69
2023-01-21T03:49:19.165Z,97181.56
2023-01-21T03:51:52.403Z,97189.38
2023-01-21T03:54:19.054Z,97183.72
2023-01-21T03:56:45.464Z,97185.94
2023-01-21T03:59:11.923Z,97186.31
2023-01-21T04:01:39.604Z,97186.03
2023-01-21T04:04:06.211Z,97181.88
2023-01-21T04:06:33.245Z,97176.72
2023-01-21T04:08:59.646Z,97186.72
2023-01-21T04:11:26.014Z,97179.34
2023-01-21T04:13:52.399Z,97186.09
2023-01-21T04:16:18.779Z,97188.94
2023-01-21T04:18:47.595Z,97194.16
2023-01-21T04:21:14.121Z,97195.00
2023-01-21T04:23:40.498Z,97189.84
2023-01-21T04:26:07.950Z,97183.53
2023-01-21T04:28:44.199Z,97192.03
2023-01-21T04:31:10.547Z,97195.00
2023-01-21T04:33:38.249Z,97199.75
2023-01-21T04:36:04.762Z,97198.16
2023-01-21T04:38:31.137Z,97201.59
2023-01-21T04:41:06.774Z,97195.75
2023-01-21T04:43:33.096Z,97195.03
2023-01-21T04:45:59.514Z,97199.19
2023-01-21T04:48:25.914Z,97201.59
2023-01-21T04:50:52.282Z,97199.34
2023-01-21T04:53:18.682Z,97194.50
2023-01-21T04:55:45.034Z,97189.00
2023-01-21T04:58:13.435Z,97201.41
2023-01-21T05:00:39.773Z,97195.69
2023-01-21T05:03:06.091Z,97197.00
2023-01-21T05:05:32.415Z,97191.03
2023-01-21T05:07:59.822Z,97195.25
2023-01-21T05:10:26.206Z,97201.09
2023-01-21T05:12:52.555Z,97195.94
2023-01-21T05:15:19.341Z,97201.97
2023-01-21T05:17:45.750Z,97203.97
2023-01-21T05:20:12.400Z,97202.53
2023-01-21T05:22:39.223Z,97203.22
2023-01-21T05:25:05.816Z,97204.44
2023-01-21T05:27:32.393Z,97209.00
2023-01-21T05:29:58.799Z,97200.72
2023-01-21T05:32:25.162Z,97204.78
2023-01-21T05:34:51.506Z,97211.75
2023-01-21T05:37:17.927Z,97207.16
2023-01-21T05:39:44.688Z,97208.09
2023-01-21T05:42:11.052Z,97219.41
2023-01-21T05:44:37.433Z,97216.09
2023-01-21T05:47:03.821Z,97224.56
2023-01-21T05:49:30.146Z,97222.97
2023-01-21T05:51:56.896Z,97227.53
2023-01-21T05:54:30.104Z,97224.03
2023-01-21T05:56:56.947Z,97219.97
2023-01-21T05:59:23.278Z,97207.94
2023-01-21T06:01:49.630Z,97215.38
2023-01-21T06:04:15.959Z,97220.28
2023-01-21T06:06:42.281Z,97221.28
2023-01-21T06:09:08.796Z,97220.66
2023-01-21T06:11:36.147Z,97224.34
2023-01-21T06:14:02.490Z,97224.53
2023-01-21T06:16:28.823Z,97225.28
2023-01-21T06:18:55.199Z,97229.03
2023-01-21T06:21:21.525Z,97231.25
2023-01-21T06:23:47.849Z,97227.31
2023-01-21T06:26:14.202Z,97233.53
2023-01-21T06:28:43.623Z,97238.50
2023-01-21T06:31:10.010Z,97235.59
2023-01-21T06:33:36.399Z,97233.00
2023-01-21T06:36:02.719Z,97231.31
2023-01-21T06:38:29.119Z,97237.31
2023-01-21T06:41:03.109Z,97233.91
2023-01-21T06:43:29.446Z,97245.28
2023-01-21T06:45:55.944Z,97239.97
2023-01-21T06:48:22.317Z,97238.69
2023-01-21T06:50:48.692Z,97246.25
2023-01-21T06:53:15.057Z,97249.13
2023-01-21T06:55:41.445Z,97237.88
2023-01-21T06:58:07.956Z,97239.63
2023-01-21T07:00:34.295Z,97241.38
2023-01-21T07:03:00.857Z,97250.78
2023-01-21T07:05:27.879Z,97240.63
2023-01-21T07:07:55.720Z,97241.88
2023-01-21T07:10:22.347Z,97244.22
2023-01-21T07:12:51.010Z,97238.25
2023-01-21T07:15:17.691Z,97237.03
2023-01-21T07:17:44.341Z,97242.78
2023-01-21T07:20:12.523Z,97238.97
2023-01-21T07:22:38.982Z,97245.16
2023-01-21T07:25:05.672Z,97248.28
2023-01-21T07:27:32.019Z,97253.25
2023-01-21T07:29:58.355Z,97255.09
2023-01-21T07:32:24.775Z,97248.75
2023-01-21T07:34:51.086Z,97250.53
2023-01-21T07:37:17.402Z,97253.66
2023-01-21T07:39:43.733Z,97257.06
2023-01-21T07:42:10.403Z,97259.03
2023-01-21T07:44:36.829Z,97272.84
2023-01-21T07:47:03.262Z,97272.66
2023-01-21T07:49:29.591Z,97270.25
2023-01-21T07:51:56.630Z,97264.66
2023-01-21T07:54:23.007Z,97267.41
2023-01-21T07:56:49.396Z,97273.16
2023-01-21T07:59:15.755Z,97276.47
2023-01-21T08:01:42.219Z,97274.59
2023-01-21T08:04:09.767Z,97278.13
2023-01-21T08:06:37.897Z,97279.34
2023-01-21T08:09:06.247Z,97271.50
2023-01-21T08:11:32.918Z,97281.94
2023-01-21T08:13:59.260Z,97282.09
2023-01-21T08:16:25.746Z,97283.66
2023-01-21T08:18:52.112Z,97288.75
2023-01-21T08:21:19.946Z,97280.72
2023-01-21T08:23:47.312Z,97284.38
2023-01-21T08:26:13.722Z,97290.03
2023-01-21T08:28:40.101Z,97297.41
2023-01-21T08:31:13.263Z,97295.72
2023-01-21T08:33:39.720Z,97294.84
2023-01-21T08:36:08.026Z,97309.66
2023-01-21T08:38:34.694Z,97295.84
2023-01-21T08:41:01.049Z,97300.94
2023-01-21T08:43:27.455Z,97302.84
2023-01-21T08:45:58.723Z,97305.91
2023-01-21T08:48:25.160Z,97303.38
2023-01-21T08:50:57.825Z,97309.66
2023-01-21T08:53:24.180Z,97310.13
2023-01-21T08:55:50.505Z,97313.09
2023-01-21T08:58:16.951Z,97310.72
2023-01-21T09:00:44.866Z,97312.97
2023-01-21T09:03:11.356Z,97317.91
2023-01-21T09:05:37.687Z,97320.63
2023-01-21T09:08:04.028Z,97323.06
2023-01-21T09:10:49.070Z,97323.81
2023-01-21T09:13:16.439Z,97323.97
2023-01-21T09:15:43.354Z,97317.72
2023-01-21T09:18:09.835Z,97330.38
2023-01-21T09:20:36.328Z,97333.03
2023-01-21T09:23:02.673Z,97338.03
2023-01-21T09:25:29.004Z,97332.09
2023-01-21T09:27:55.355Z,97335.34
2023-01-21T09:30:27.675Z,97342.25
2023-01-21T09:32:54.023Z,97343.91
2023-01-21T09:35:22.385Z,97347.59
2023-01-21T09:37:48.701Z,97349.28
2023-01-21T09:40:16.233Z,97348.91
2023-01-21T09:42:46.499Z,97354.25
2023-01-21T09:45:15.205Z,97348.81
2023-01-21T09:47:44.781Z,97355.56
2023-01-21T09:50:16.755Z,97353.91
2023-01-21T09:52:44.964Z,97364.03
2023-01-21T09:55:17.781Z,97352.97
2023-01-21T09:58:01.904Z,97350.53
2023-01-21T10:00:33.608Z,97359.78
2023-01-21T10:03:06.006Z,97365.22
2023-01-21T10:05:38.240Z,97368.25
2023-01-21T10:08:07.690Z,97363.19
2023-01-21T10:10:40.224Z,97361.78
2023-01-21T10:13:15.479Z,97359.56
2023-01-21T10:15:53.825Z,97362.59
2023-01-21T10:18:24.875Z,97362.31
2023-01-21T10:20:54.228Z,97350.69
2023-01-21T10:23:24.888Z,97349.97
2023-01-21T10:25:51.363Z,97362.81
2023-01-21T10:28:25.552Z,97364.16
2023-01-21T10:30:55.564Z,97362.06
2023-01-21T10:33:24.125Z,97352.66
2023-01-21T10:35:59.849Z,97353.78
2023-01-21T10:38:41.207Z,97353.63
2023-01-21T10:41:27.106Z,97354.47
2023-01-21T10:43:56.496Z,97356.31
2023-01-21T10:46:26.505Z,97348.22
2023-01-21T10:49:06.928Z,97352.44
2023-01-21T10:51:38.219Z,97351.53
2023-01-21T10:54:27.324Z,97347.59
2023-01-21T10:57:20.151Z,97353.00
2023-01-21T10:59:47.786Z,97343.69
2023-01-21T11:02:19.125Z,97330.25
2023-01-21T11:04:45.498Z,97336.56
2023-01-21T11:07:13.618Z,97345.16
2023-01-21T11:09:45.109Z,97336.44
2023-01-21T11:12:18.770Z,97331.31
2023-01-21T11:14:47.914Z,97332.28
2023-01-21T11:17:28.186Z,97318.22
2023-01-21T11:19:58.562Z,97318.44
2023-01-21T11:22:26.044Z,97316.75
2023-01-21T11:24:52.795Z,97321.81
2023-01-21T11:27:31.053Z,97323.41
2023-01-21T11:29:57.371Z,97319.88
2023-01-21T11:32:27.183Z,97313.91
2023-01-21T11:35:16.349Z,97314.59
2023-01-21T11:37:44.835Z,97307.31
2023-01-21T11:40:11.429Z,97299.09
2023-01-21T11:42:48.212Z,97307.78
2023-01-21T11:45:26.650Z,97305.31
2023-01-21T11:47:53.823Z,97306.13
2023-01-21T11:50:34.803Z,97298.09
2023-01-21T11:53:07.948Z,97312.44
2023-01-21T11:55:54.698Z,97305.28
2023-01-21T11:58:32.026Z,97309.22
2023-01-21T12:01:03.326Z,97305.59
2023-01-21T12:03:29.639Z,97294.72
2023-01-21T12:05:56.051Z,97277.22
2023-01-21T12:08:40.586Z,97290.66
2023-01-21T12:11:07.785Z,97287.88
2023-01-21T12:13:43.045Z,97291.09
2023-01-21T12:16:20.867Z,97293.34
2023-01-21T12:19:06.948Z,97292.63
2023-01-21T12:21:34.303Z,97295.19
2023-01-21T12:24:08.843Z,97291.56
2023-01-21T12:26:45.651Z,97283.00
2023-01-21T12:29:33.771Z,97288.59
2023-01-21T12:32:03.389Z,97285.31
2023-01-21T12:34:35.993Z,97281.16
2023-01-21T12:37:05.415Z,97279.91
2023-01-21T12:39:34.150Z,97270.38
2023-01-21T12:42:06.607Z,97281.34
2023-01-21T12:44:44.952Z,97283.03
2023-01-21T12:47:34.422Z,97275.34
2023-01-21T12:50:20.730Z,97281.44
2023-01-21T12:52:55.009Z,97273.69
2023-01-21T12:55:21.372Z,97268.13
2023-01-21T12:57:50.722Z,97266.88
2023-01-21T13:00:34.076Z,97273.28
2023-01-21T13:03:12.877Z,97274.94
2023-01-21T13:06:05.757Z,97272.34
2023-01-21T13:08:35.205Z,97275.03
2023-01-21T13:11:13.063Z,97275.03
2023-01-21T13:13:41.824Z,97268.94
2023-01-21T13:16:09.220Z,97277.72
2023-01-21T13:18:39.702Z,97271.31
2023-01-21T13:21:28.324Z,97263.75
2023-01-21T13:24:00.154Z,97262.31
2023-01-21T13:26:44.627Z,97266.44
2023-01-21T13:29:20.046Z,97261.91
2023-01-21T13:31:48.847Z,97270.59
2023-01-21T13:34:22.779Z,97267.50
2023-01-21T13:37:11.566Z,97259.22
2023-01-21T13:39:37.904Z,97263.97
2023-01-21T13:42:24.088Z,97270.81
2023-01-21T13:44:54.685Z,97273.81
2023-01-21T13:47:29.812Z,97274.47
2023-01-21T13:50:02.056Z,97271.59
2023-01-21T13:52:50.066Z,97273.59
2023-01-21T13:55:37.825Z,97279.38
2023-01-21T13:58:27.144Z,97275.56
2023-01-21T14:00:57.163Z,97274.66
2023-01-21T14:03:38.719Z,97272.75
2023-01-21T14:06:09.762Z,97274.91
2023-01-21T14:08:43.017Z,97272.63
2023-01-21T14:11:09.335Z,97272.63
2023-01-21T14:14:04.689Z,97276.88
2023-01-21T14:16:37.356Z,97286.41
2023-01-21T14:19:22.480Z,97274.00
2023-01-21T14:22:05.356Z,97283.00
2023-01-21T14:24:55.326Z,97264.91
2023-01-21T14:27:31.014Z,97277.25
2023-01-21T14:30:23.127Z,97274.00
2023-01-21T14:32:54.247Z,97278.56
2023-01-21T14:35:35.971Z,97277.47
2023-01-21T14:38:05.113Z,97286.31
2023-01-21T14:40:33.031Z,97289.94
2023-01-21T14:42:59.757Z,97277.53
2023-01-21T14:45:49.536Z,97280.03
2023-01-21T14:48:34.733Z,97281.22
2023-01-21T14:51:20.615Z,97281.78
2023-01-21T14:53:48.409Z,97282.97
2023-01-21T14:56:16.084Z,97276.41
2023-01-21T14:58:53.583Z,97281.94
2023-01-21T15:01:29.009Z,97280.13
2023-01-21T15:03:57.359Z,97275.25
2023-01-21T15:06:25.133Z,97278.94
2023-01-21T15:08:53.420Z,97276.44
2023-01-21T15:11:21.677Z,97274.84
2023-01-21T15:14:12.291Z,97275.53
2023-01-21T15:16:40.115Z,97281.38
2023-01-21T15:19:09.812Z,97280.81
2023-01-21T15:21:36.220Z,97281.59
2023-01-21T15:24:21.880Z,97280.66
2023-01-21T15:27:04.060Z,97292.16
2023-01-21T15:29:37.170Z,97291.81
2023-01-21T15:32:14.000Z,97288.59
2023-01-21T15:34:42.268Z,97290.75
2023-01-21T15:37:26.853Z,97283.69
2023-01-21T15:39:56.996Z,97293.72
2023-01-21T15:42:43.869Z,97293.28
2023-01-21T15:45:16.221Z,97299.25
2023-01-21T15:47:51.827Z,97307.75
2023-01-21T15:50:27.746Z,97306.34
2023-01-21T15:52:56.935Z,97303.78
2023-01-21T15:55:32.367Z,97307.00
2023-01-21T15:58:17.227Z,97307.97
2023-01-21T16:00:55.859Z,97301.47
2023-01-21T16:03:30.183Z,97306.81
2023-01-21T16:06:10.486Z,97300.78
2023-01-21T16:08:42.573Z,97300.66
2023-01-21T16:11:14.859Z,97305.06
2023-01-21T16:13:55.705Z,97303.50
2023-01-21T16:16:36.981Z,97308.22
2023-01-21T16:19:08.589Z,97301.69
2023-01-21T16:21:36.483Z,97307.97
2023-01-21T16:24:08.459Z,97309.91
2023-01-21T16:26:34.822Z,97305.38
2023-01-21T16:29:01.339Z,97312.84
2023-01-21T16:31:27.836Z,97303.16
2023-01-21T16:33:54.494Z,97308.53
2023-01-21T16:36:20.845Z,97312.81
2023-01-21T16:38:47.510Z,97310.16
2023-01-21T16:41:24.002Z,97305.75
2023-01-21T16:43:54.381Z,97303.72
2023-01-21T16:46:23.720Z,97313.56
2023-01-21T16:48:51.507Z,97311.72
2023-01-21T16:51:23.737Z,97312.38
2023-01-21T16:53:53.736Z,97314.41
2023-01-21T16:56:28.300Z,97310.34
2023-01-21T16:58:56.435Z,97313.31
2023-01-21T17:01:24.942Z,97312.94
2023-01-21T17:03:51.488Z,97315.25
2023-01-21T17:06:30.099Z,97312.13
2023-01-21T17:08:58.702Z,97316.19
2023-01-21T17:11:25.267Z,97312.75
2023-01-21T17:13:52.098Z,97309.34
2023-01-21T17:16:22.716Z,97317.75
2023-01-21T17:19:02.014Z,97313.13
2023-01-21T17:21:28.356Z,97314.78
2023-01-21T17:23:56.299Z,97317.38
2023-01-21T17:26:30.612Z,97313.69
2023-01-21T17:28:58.102Z,97319.19
2023-01-21T17:31:31.480Z,97313.78
2023-01-21T17:34:21.658Z,97325.94
2023-01-21T17:36:49.299Z,97322.09
2023-01-21T17:39:35.697Z,97328.63
2023-01-21T17:42:05.237Z,97326.97
2023-01-21T17:44:31.687Z,97334.81
2023-01-21T17:46:58.033Z,97339.31
2023-01-21T17:49:26.283Z,97338.59
2023-01-21T17:51:54.197Z,97340.44
2023-01-21T17:54:21.935Z,97342.19
2023-01-21T17:56:52.814Z,97331.00
2023-01-21T17:59:34.185Z,97339.59
2023-01-21T18:02:01.162Z,97335.91
2023-01-21T18:04:29.692Z,97340.44
2023-01-21T18:06:56.562Z,97337.03
2023-01-21T18:09:23.909Z,97330.47
2023-01-21T18:11:53.491Z,97340.16
2023-01-21T18:14:33.033Z,97338.66
2023-01-21T18:16:59.441Z,97333.13
2023-01-21T18:19:36.509Z,97334.81
2023-01-21T18:22:04.030Z,97336.94
2023-01-21T18:24:30.406Z,97329.19
2023-01-21T18:26:57.665Z,97333.59
2023-01-21T18:29:28.005Z,97328.06
2023-01-21T18:31:54.363Z,97326.03
2023-01-21T18:34:21.025Z,97325.94
2023-01-21T18:36:47.365Z,97326.06
2023-01-21T18:39:17.600Z,97321.88
2023-01-21T18:41:44.270Z,97320.78
2023-01-21T18:44:10.636Z,97317.34
2023-01-21T18:46:43.872Z,97314.34
2023-01-21T18:49:20.130Z,97307.78
2023-01-21T18:51:48.308Z,97301.88
2023-01-21T18:54:23.947Z,97311.38
2023-01-21T18:56:50.295Z,97306.50
2023-01-21T18:59:18.014Z,97306.13
2023-01-21T19:01:45.940Z,97309.09
2023-01-21T19:04:14.205Z,97323.66
2023-01-21T19:06:40.673Z,97310.56
2023-01-21T19:09:19.264Z,97311.84
2023-01-21T19:11:45.629Z,97304.00
2023-01-21T19:14:11.980Z,97308.53
2023-01-21T19:16:39.577Z,97312.78
2023-01-21T19:19:16.924Z,97303.81
2023-01-21T19:21:44.366Z,97298.56
2023-01-21T19:24:12.288Z,97290.72
2023-01-21T19:26:39.903Z,97294.31
2023-01-21T19:29:10.983Z,97292.91
2023-01-21T19:31:37.519Z,97289.16
2023-01-21T19:34:03.945Z,97289.72
2023-01-21T19:36:30.359Z,97293.59
2023-01-21T19:39:01.410Z,97284.72
2023-01-21T19:41:27.795Z,97286.19
2023-01-21T19:43:56.191Z,97292.59
2023-01-21T19:46:23.851Z,97295.34
2023-01-21T19:48:53.641Z,97288.50
2023-01-21T19:51:20.181Z,97292.13
2023-01-21T19:53:46.620Z,97290.25
2023-01-21T19:56:15.951Z,97297.66
2023-01-21T19:58:42.430Z,97292.28
2023-01-21T20:01:13.009Z,97294.16
2023-01-21T20:03:48.148Z,97294.88
2023-01-21T20:06:22.429Z,97293.59
2023-01-21T20:08:50.902Z,97292.38
2023-01-21T20:11:18.411Z,97296.34
2023-01-21T20:13:44.852Z,97295.63
2023-01-21T20:16:16.200Z,97292.84
2023-01-21T20:18:42.715Z,97294.88
2023-01-21T20:21:09.280Z,97302.06
2023-01-21T20:23:39.158Z,97300.25
2023-01-21T20:26:07.175Z,97303.94
2023-01-21T20:28:37.197Z,97304.66
2023-01-21T20:31:06.559Z,97304.81
2023-01-21T20:33:33.668Z,97306.59
2023-01-21T20:36:00.306Z,97305.66
2023-01-21T20:38:28.314Z,97308.78
2023-01-21T20:40:54.708Z,97316.47
2023-01-21T20:43:21.070Z,97311.38
2023-01-21T20:45:47.953Z,97319.28
2023-01-21T20:48:35.763Z,97315.91
2023-01-21T20:51:02.891Z,97312.84
2023-01-21T20:53:30.750Z,97320.22
2023-01-21T20:55:58.733Z,97324.66
2023-01-21T20:58:26.293Z,97323.34
2023-01-21T21:00:53.769Z,97326.06
2023-01-21T21:03:20.381Z,97313.66
2023-01-21T21:05:49.862Z,97315.25
2023-01-21T21:08:20.333Z,97314.97
2023-01-21T21:10:48.101Z,97318.94
2023-01-21T21:13:14.580Z,97318.47
2023-01-21T21:15:45.659Z,97315.91
2023-01-21T21:18:13.733Z,97315.72
2023-01-21T21:20:40.574Z,97321.59
2023-01-21T21:23:07.603Z,97318.34
2023-01-21T21:25:39.665Z,97323.19
2023-01-21T21:28:06.025Z,97320.78
2023-01-21T21:30:33.717Z,97320.88
2023-01-21T21:33:01.655Z,97325.38
2023-01-21T21:35:31.610Z,97327.34
2023-01-21T21:37:59.040Z,97332.88
2023-01-21T21:40:26.485Z,97335.81
2023-01-21T21:43:13.572Z,97333.03
2023-01-21T21:46:00.243Z,97338.75
2023-01-21T21:48:40.987Z,97331.84
2023-01-21T21:51:09.125Z,97329.53
2023-01-21T21:53:36.109Z,97336.94
2023-01-21T21:56:03.588Z,97334.22
2023-01-21T21:58:30.304Z,97332.66
2023-01-21T22:00:56.676Z,97334.16
2023-01-21T22:03:23.274Z,97331.38
2023-01-21T22:05:51.343Z,97337.03
2023-01-21T22:08:17.872Z,97333.22
2023-01-21T22:10:44.196Z,97337.66
2023-01-21T22:13:11.593Z,97341.09
2023-01-21T22:15:38.065Z,97346.13
2023-01-21T22:18:06.527Z,97336.94
2023-01-21T22:20:32.937Z,97339.69
2023-01-21T22:22:59.290Z,97338.97
2023-01-21T22:25:26.713Z,97334.53
2023-01-21T22:27:53.108Z,97337.03
2023-01-21T22:30:19.507Z,97337.03
2023-01-21T22:32:53.629Z,97339.69
2023-01-21T22:35:20.092Z,97341.09
2023-01-21T22:37:46.644Z,97341.34
2023-01-21T22:40:13.473Z,97339.88
2023-01-21T22:42:39.793Z,97339.41
2023-01-21T22:45:06.406Z,97337.66
2023-01-21T22:47:34.765Z,97334.16
2023-01-21T22:50:07.408Z,97341.88
2023-01-21T22:52:33.734Z,97346.88
2023-01-21T22:55:00.061Z,97341.25
2023-01-21T22:57:26.388Z,97348.84
2023-01-21T23:00:00.515Z,97341.44
2023-01-21T23:02:27.881Z,97346.34
2023-01-21T23:04:55.408Z,97347.72
2023-01-21T23:07:21.757Z,97339.97
2023-01-21T23:09:48.102Z,97337.84
2023-01-21T23:12:20.515Z,97337.09
2023-01-21T23:14:47.469Z,97338.59
2023-01-21T23:17:14.373Z,97330.66
2023-01-21T23:19:42.829Z,97333.97
2023-01-21T23:22:09.146Z,97328.97
2023-01-21T23:24:35.458Z,97331.47
2023-01-21T23:27:01.859Z,97332.66
2023-01-21T23:29:28.189Z,97330.19
2023-01-21T23:31:54.776Z,97322.38
2023-01-21T23:34:22.745Z,97316.44
2023-01-21T23:36:49.664Z,97318.47
2023-01-21T23:39:16.059Z,97317.56
2023-01-21T23:41:42.413Z,97320.50
2023-01-21T23:44:10.697Z,97313.16
2023-01-21T23:46:37.186Z,97317.94
2023-01-21T23:49:03.505Z,97319.75
2023-01-21T23:51:39.929Z,97314.25
2023-01-21T23:54:06.391Z,97315.25
2023-01-21T23:56:32.726Z,97302.81
2023-01-21T23:58:59.035Z,97305.66
